createdAt,value
2022-11-17T00:02:00.856Z,83.69
2022-11-17T00:04:29.999Z,83.91
2022-11-17T00:06:58.153Z,83.78
2022-11-17T00:09:26.182Z,83.39
2022-11-17T00:12:22.715Z,83.43
2022-11-17T00:14:50.746Z,83.87
2022-11-17T00:17:18.710Z,83.54
2022-11-17T00:20:05.077Z,83.50
2022-11-17T00:22:33.125Z,83.21
2022-11-17T00:25:00.937Z,83.11
2022-11-17T00:27:28.616Z,83.24
2022-11-17T00:29:56.966Z,83.55
2022-11-17T00:32:42.596Z,83.54
2022-11-17T00:35:11.790Z,83.23
2022-11-17T00:38:01.301Z,82.93
2022-11-17T00:40:29.454Z,83.06
2022-11-17T00:42:57.157Z,83.09
2022-11-17T00:45:24.837Z,83.23
2022-11-17T00:47:52.714Z,83.32
2022-11-17T00:50:21.838Z,83.69
2022-11-17T00:52:49.819Z,83.28
2022-11-17T00:55:17.993Z,83.35
2022-11-17T00:57:45.723Z,83.57
2022-11-17T01:00:14.479Z,83.48
2022-11-17T01:02:42.238Z,83.42
2022-11-17T01:05:10.355Z,83.50
2022-11-17T01:07:39.520Z,83.42
2022-11-17T01:10:08.359Z,83.13
2022-11-17T01:12:36.077Z,83.58
2022-11-17T01:15:03.863Z,83.64
2022-11-17T01:17:31.571Z,83.63
2022-11-17T01:19:59.439Z,83.55
2022-11-17T01:22:27.207Z,83.48
2022-11-17T01:24:56.643Z,83.34
2022-11-17T01:27:24.518Z,83.01
2022-11-17T01:29:52.231Z,82.70
2022-11-17T01:32:19.891Z,82.69
2022-11-17T01:34:48.608Z,82.58
2022-11-17T01:37:22.454Z,82.51
2022-11-17T01:39:50.991Z,82.61
2022-11-17T01:42:22.635Z,82.42
2022-11-17T01:44:56.734Z,82.42
2022-11-17T01:47:28.497Z,82.79
2022-11-17T01:49:58.858Z,82.79
2022-11-17T01:52:26.977Z,83.11
2022-11-17T01:54:55.361Z,82.97
2022-11-17T01:57:26.803Z,83.04
2022-11-17T01:59:57.446Z,83.05
2022-11-17T02:02:25.193Z,83.42
2022-11-17T02:04:57.635Z,83.18
2022-11-17T02:07:27.110Z,83.21
2022-11-17T02:09:55.440Z,82.74
2022-11-17T02:12:27.264Z,82.97
2022-11-17T02:14:55.695Z,83.14
2022-11-17T02:17:25.167Z,83.24
2022-11-17T02:19:58.122Z,83.28
2022-11-17T02:22:43.894Z,83.29
2022-11-17T02:25:27.215Z,83.63
2022-11-17T02:28:05.164Z,83.60
2022-11-17T02:30:37.130Z,83.30
2022-11-17T02:33:08.421Z,83.19
2022-11-17T02:35:42.015Z,83.34
2022-11-17T02:38:18.653Z,83.03
2022-11-17T02:40:50.650Z,83.20
2022-11-17T02:43:40.221Z,83.07
2022-11-17T02:46:09.915Z,82.77
2022-11-17T02:48:40.141Z,82.75
2022-11-17T02:51:13.782Z,82.24
2022-11-17T02:53:41.799Z,82.39
2022-11-17T02:56:09.733Z,82.28
2022-11-17T02:58:39.055Z,82.54
2022-11-17T03:01:20.852Z,82.47
2022-11-17T03:04:04.195Z,82.30
2022-11-17T03:06:50.324Z,81.73
2022-11-17T03:09:21.642Z,82.00
2022-11-17T03:11:51.453Z,80.90
2022-11-17T03:14:27.442Z,80.69
2022-11-17T03:16:58.519Z,80.43
2022-11-17T03:19:30.435Z,80.21
2022-11-17T03:22:02.985Z,79.75
2022-11-17T03:24:33.612Z,79.67
2022-11-17T03:27:04.274Z,79.71
2022-11-17T03:29:34.108Z,79.40
2022-11-17T03:32:04.707Z,79.58
2022-11-17T03:34:37.482Z,79.74
2022-11-17T03:37:07.607Z,79.51
2022-11-17T03:39:37.944Z,79.75
2022-11-17T03:42:09.511Z,79.28
2022-11-17T03:44:41.570Z,79.29
2022-11-17T03:47:10.908Z,79.13
2022-11-17T03:49:41.387Z,79.44
2022-11-17T03:52:09.324Z,79.46
2022-11-17T03:54:37.672Z,79.21
2022-11-17T03:57:08.596Z,78.69
2022-11-17T03:59:43.439Z,78.40
2022-11-17T04:02:15.761Z,78.45
2022-11-17T04:05:00.816Z,78.35
2022-11-17T04:07:28.512Z,78.34
2022-11-17T04:09:56.349Z,78.21
2022-11-17T04:12:41.899Z,78.07
2022-11-17T04:15:30.011Z,77.77
2022-11-17T04:17:57.829Z,78.35
2022-11-17T04:20:25.466Z,78.05
2022-11-17T04:26:06.827Z,77.79
2022-11-17T04:28:38.693Z,77.94
2022-11-17T04:31:07.973Z,78.04
2022-11-17T04:33:36.225Z,77.73
2022-11-17T04:36:04.750Z,78.00
2022-11-17T04:38:32.504Z,78.16
2022-11-17T04:41:32.683Z,77.98
2022-11-17T04:44:00.879Z,77.84
2022-11-17T04:46:30.835Z,78.66
2022-11-17T04:48:59.355Z,78.17
2022-11-17T04:51:28.777Z,77.73
2022-11-17T04:53:57.260Z,78.01
2022-11-17T04:56:26.796Z,77.68
2022-11-17T04:58:55.217Z,77.63
2022-11-17T05:01:23.948Z,77.45
2022-11-17T05:03:53.169Z,77.24
2022-11-17T05:06:22.407Z,76.87
2022-11-17T05:08:50.502Z,76.63
2022-11-17T05:11:36.404Z,76.43
2022-11-17T05:14:05.877Z,76.39
2022-11-17T05:16:51.245Z,75.83
2022-11-17T05:19:20.454Z,75.89
2022-11-17T05:21:48.266Z,75.36
2022-11-17T05:24:15.406Z,75.46
2022-11-17T05:26:44.586Z,75.09
2022-11-17T05:29:15.275Z,75.32
2022-11-17T05:31:43.180Z,75.36
2022-11-17T05:34:12.739Z,75.25
2022-11-17T05:36:41.376Z,74.99
2022-11-17T05:39:09.552Z,75.57
2022-11-17T05:41:37.952Z,75.52
2022-11-17T05:44:06.118Z,75.57
2022-11-17T05:46:35.248Z,75.52
2022-11-17T05:49:03.329Z,75.45
2022-11-17T05:51:32.278Z,75.52
2022-11-17T05:53:59.924Z,75.41
2022-11-17T05:56:32.990Z,75.50
2022-11-17T05:59:05.390Z,75.73
2022-11-17T06:01:33.040Z,76.05
2022-11-17T06:04:04.646Z,75.83
2022-11-17T06:06:32.863Z,75.87
2022-11-17T06:09:00.880Z,75.82
2022-11-17T06:11:28.829Z,75.46
2022-11-17T06:13:57.103Z,75.60
2022-11-17T06:16:26.920Z,75.06
2022-11-17T06:19:03.794Z,75.24
2022-11-17T06:21:49.329Z,74.94
2022-11-17T06:24:19.633Z,74.47
2022-11-17T06:26:48.355Z,74.34
2022-11-17T06:29:16.410Z,74.06
2022-11-17T06:31:46.279Z,73.65
2022-11-17T06:34:15.645Z,73.86
2022-11-17T06:36:43.619Z,74.04
2022-11-17T06:39:11.314Z,73.91
2022-11-17T06:41:39.926Z,74.04
2022-11-17T06:44:07.653Z,73.74
2022-11-17T06:46:39.130Z,73.83
2022-11-17T06:49:10.949Z,73.87
2022-11-17T06:51:44.928Z,73.62
2022-11-17T06:54:14.563Z,73.42
2022-11-17T06:56:42.544Z,73.45
2022-11-17T06:59:10.356Z,73.58
2022-11-17T07:01:38.261Z,73.48
2022-11-17T07:04:06.908Z,72.80
2022-11-17T07:06:37.402Z,72.70
2022-11-17T07:09:06.762Z,72.73
2022-11-17T07:11:35.806Z,72.82
2022-11-17T07:14:03.924Z,72.81
2022-11-17T07:16:32.607Z,72.94
2022-11-17T07:19:03.675Z,72.64
2022-11-17T07:21:31.401Z,72.33
2022-11-17T07:23:59.238Z,71.61
2022-11-17T07:26:28.413Z,71.92
2022-11-17T07:28:56.442Z,71.87
2022-11-17T07:31:24.309Z,71.68
2022-11-17T07:33:52.052Z,71.72
2022-11-17T07:36:21.885Z,71.94
2022-11-17T07:38:50.039Z,71.57
2022-11-17T07:41:20.221Z,71.21
2022-11-17T07:43:51.683Z,71.78
2022-11-17T07:46:19.402Z,71.76
2022-11-17T07:48:47.118Z,71.72
2022-11-17T07:51:16.005Z,71.79
2022-11-17T07:53:43.657Z,72.28
2022-11-17T07:56:12.427Z,72.50
2022-11-17T07:58:40.412Z,72.44
2022-11-17T08:01:10.779Z,72.33
2022-11-17T08:03:38.813Z,72.46
2022-11-17T08:06:07.615Z,72.66
2022-11-17T08:08:36.060Z,72.23
2022-11-17T08:11:05.078Z,72.83
2022-11-17T08:13:32.911Z,72.76
2022-11-17T08:16:00.843Z,72.64
2022-11-17T08:18:30.778Z,72.59
2022-11-17T08:21:09.329Z,72.21
2022-11-17T08:23:37.595Z,72.14
2022-11-17T08:26:06.469Z,72.34
2022-11-17T08:28:35.140Z,72.50
2022-11-17T08:31:03.973Z,72.13
2022-11-17T08:33:33.354Z,72.16
2022-11-17T08:36:02.398Z,72.38
2022-11-17T08:38:31.571Z,72.24
2022-11-17T08:41:00.335Z,72.35
2022-11-17T08:43:28.376Z,71.95
2022-11-17T08:45:56.623Z,71.96
2022-11-17T08:48:24.719Z,71.94
2022-11-17T08:50:53.775Z,71.99
2022-11-17T08:53:23.516Z,71.57
2022-11-17T08:55:51.846Z,71.26
2022-11-17T08:58:19.777Z,70.91
2022-11-17T09:00:47.880Z,70.64
2022-11-17T09:03:15.928Z,69.98
2022-11-17T09:05:46.948Z,70.05
2022-11-17T09:08:56.251Z,70.15
2022-11-17T09:11:05.600Z,69.70
2022-11-17T09:13:33.704Z,70.05
2022-11-17T09:16:03.574Z,69.34
2022-11-17T09:18:31.718Z,69.50
2022-11-17T09:21:03.142Z,69.17
2022-11-17T09:23:33.453Z,69.34
2022-11-17T09:26:06.042Z,69.28
2022-11-17T09:28:33.958Z,68.91
2022-11-17T09:31:07.457Z,68.56
2022-11-17T09:33:35.400Z,69.21
2022-11-17T09:36:02.997Z,69.52
2022-11-17T09:38:37.088Z,68.76
2022-11-17T09:41:18.206Z,68.83
2022-11-17T09:43:49.673Z,69.15
2022-11-17T09:46:21.709Z,69.65
2022-11-17T09:48:54.337Z,68.71
2022-11-17T09:51:23.204Z,68.95
2022-11-17T09:53:56.718Z,68.35
2022-11-17T09:56:27.765Z,68.86
2022-11-17T09:58:58.747Z,68.23
2022-11-17T10:01:28.990Z,67.62
2022-11-17T10:03:59.993Z,67.42
2022-11-17T10:06:29.497Z,67.43
2022-11-17T10:09:01.330Z,67.62
2022-11-17T10:11:34.899Z,67.46
2022-11-17T10:14:04.753Z,67.73
2022-11-17T10:16:32.483Z,67.58
2022-11-17T10:19:00.131Z,67.26
2022-11-17T10:21:30.666Z,67.75
2022-11-17T10:24:00.309Z,67.18
2022-11-17T10:26:28.359Z,67.78
2022-11-17T10:29:09.558Z,67.04
2022-11-17T10:31:43.967Z,67.69
2022-11-17T10:34:12.986Z,68.12
2022-11-17T10:36:46.718Z,67.65
2022-11-17T10:39:40.520Z,68.58
2022-11-17T10:42:55.064Z,67.57
2022-11-17T10:45:23.707Z,67.78
2022-11-17T10:47:51.710Z,67.59
2022-11-17T10:50:24.146Z,67.37
2022-11-17T10:52:52.550Z,67.17
2022-11-17T10:55:26.593Z,67.87
2022-11-17T10:57:57.861Z,67.74
2022-11-17T11:00:33.844Z,67.53
2022-11-17T11:03:17.434Z,67.63
2022-11-17T11:06:00.432Z,67.74
2022-11-17T11:08:33.169Z,67.41
2022-11-17T11:11:04.310Z,67.57
2022-11-17T11:13:37.439Z,66.19
2022-11-17T11:16:06.479Z,66.83
2022-11-17T11:18:34.140Z,66.17
2022-11-17T11:21:09.748Z,65.90
2022-11-17T11:23:45.745Z,65.53
2022-11-17T11:26:26.336Z,66.02
2022-11-17T11:29:04.875Z,65.63
2022-11-17T11:31:43.053Z,65.66
2022-11-17T11:34:20.632Z,65.92
2022-11-17T11:36:52.528Z,65.93
2022-11-17T11:39:29.384Z,65.76
2022-11-17T11:42:21.041Z,65.58
2022-11-17T11:45:13.643Z,65.98
2022-11-17T11:47:57.973Z,66.35
2022-11-17T11:50:30.118Z,66.16
2022-11-17T11:53:04.785Z,66.42
2022-11-17T11:55:35.177Z,66.50
2022-11-17T11:58:11.988Z,66.35
2022-11-17T12:00:42.627Z,66.21
2022-11-17T12:03:18.020Z,66.35
2022-11-17T12:05:58.145Z,66.69
2022-11-17T12:08:33.903Z,66.21
2022-11-17T12:11:24.671Z,65.91
2022-11-17T12:13:54.650Z,65.56
2022-11-17T12:16:32.199Z,65.35
2022-11-17T12:19:03.429Z,65.30
2022-11-17T12:21:39.262Z,65.35
2022-11-17T12:24:16.956Z,65.96
2022-11-17T12:26:45.034Z,65.65
2022-11-17T12:29:27.269Z,65.98
2022-11-17T12:31:55.804Z,66.25
2022-11-17T12:34:26.437Z,66.38
2022-11-17T12:37:23.584Z,66.61
2022-11-17T12:40:02.313Z,66.67
2022-11-17T12:42:32.993Z,66.38
2022-11-17T12:45:11.911Z,66.12
2022-11-17T12:47:40.999Z,65.89
2022-11-17T12:50:42.404Z,65.75
2022-11-17T12:53:30.052Z,65.48
2022-11-17T12:56:15.887Z,65.97
2022-11-17T12:58:53.568Z,66.24
2022-11-17T13:01:29.239Z,66.25
2022-11-17T13:04:01.000Z,65.65
2022-11-17T13:06:35.380Z,65.83
2022-11-17T13:09:07.455Z,65.79
2022-11-17T13:11:35.678Z,65.46
2022-11-17T13:14:11.369Z,65.79
2022-11-17T13:16:49.694Z,65.87
2022-11-17T13:19:57.257Z,65.77
2022-11-17T13:22:26.821Z,65.53
2022-11-17T13:25:25.381Z,65.71
2022-11-17T13:28:04.671Z,65.32
2022-11-17T13:30:34.045Z,65.46
2022-11-17T13:33:04.044Z,64.93
2022-11-17T13:35:35.388Z,64.71
2022-11-17T13:38:05.387Z,64.63
2022-11-17T13:40:34.988Z,64.95
2022-11-17T13:43:04.324Z,64.89
2022-11-17T13:45:32.059Z,65.09
2022-11-17T13:48:00.249Z,64.64
2022-11-17T13:50:37.282Z,65.02
2022-11-17T13:53:22.881Z,65.38
2022-11-17T13:55:51.196Z,65.24
2022-11-17T13:58:30.662Z,65.21
2022-11-17T14:00:59.775Z,65.40
2022-11-17T14:03:36.253Z,65.09
2022-11-17T14:06:08.061Z,65.45
2022-11-17T14:08:36.972Z,65.68
2022-11-17T14:11:21.627Z,65.75
2022-11-17T14:13:51.023Z,66.17
2022-11-17T14:16:25.229Z,66.03
2022-11-17T14:19:00.711Z,66.13
2022-11-17T14:21:30.328Z,66.06
2022-11-17T14:24:04.187Z,66.56
2022-11-17T14:26:32.700Z,66.92
2022-11-17T14:29:02.497Z,66.42
2022-11-17T14:31:31.680Z,66.55
2022-11-17T14:34:00.049Z,66.43
2022-11-17T14:36:29.608Z,66.58
2022-11-17T14:38:57.311Z,66.41
2022-11-17T14:41:25.229Z,66.33
2022-11-17T14:43:52.849Z,66.27
2022-11-17T14:46:22.716Z,66.53
2022-11-17T14:48:50.486Z,66.67
2022-11-17T14:51:18.518Z,66.56
2022-11-17T14:53:48.225Z,67.41
2022-11-17T14:56:17.886Z,66.82
2022-11-17T14:58:45.697Z,67.06
2022-11-17T15:01:17.113Z,66.61
2022-11-17T15:03:44.921Z,67.13
2022-11-17T15:06:19.375Z,67.12
2022-11-17T15:08:49.315Z,66.47
2022-11-17T15:11:18.739Z,66.94
2022-11-17T15:13:46.414Z,66.74
2022-11-17T15:16:14.288Z,66.99
2022-11-17T15:18:42.063Z,66.94
2022-11-17T15:21:11.013Z,66.72
2022-11-17T15:23:40.052Z,67.43
2022-11-17T15:26:11.518Z,67.05
2022-11-17T15:28:39.149Z,67.03
2022-11-17T15:31:12.189Z,66.74
2022-11-17T15:33:41.386Z,67.20
2022-11-17T15:36:10.680Z,67.18
2022-11-17T15:38:38.704Z,67.16
2022-11-17T15:41:06.968Z,67.46
2022-11-17T15:43:37.867Z,67.55
2022-11-17T15:46:07.012Z,67.20
2022-11-17T15:48:35.297Z,67.09
2022-11-17T15:51:04.192Z,67.50
2022-11-17T15:53:33.138Z,67.64
2022-11-17T15:56:04.729Z,67.48
2022-11-17T15:58:33.458Z,67.47
2022-11-17T16:01:14.221Z,67.57
2022-11-17T16:03:43.253Z,68.01
2022-11-17T16:06:11.670Z,68.25
2022-11-17T16:08:40.181Z,68.11
2022-11-17T16:11:08.289Z,67.28
2022-11-17T16:13:35.924Z,67.63
2022-11-17T16:16:03.629Z,66.87
2022-11-17T16:18:33.983Z,66.58
2022-11-17T16:21:05.582Z,66.65
2022-11-17T16:23:38.934Z,66.68
2022-11-17T16:26:06.684Z,67.15
2022-11-17T16:28:34.400Z,67.03
2022-11-17T16:31:02.378Z,66.81
2022-11-17T16:33:30.006Z,67.03
2022-11-17T16:36:06.788Z,67.46
2022-11-17T16:38:35.169Z,67.70
2022-11-17T16:41:03.170Z,67.57
2022-11-17T16:43:31.142Z,67.78
2022-11-17T16:45:59.007Z,68.02
2022-11-17T16:48:26.627Z,67.92
2022-11-17T16:50:54.587Z,67.69
2022-11-17T16:53:24.174Z,67.73
2022-11-17T16:55:52.002Z,67.60
2022-11-17T16:58:22.603Z,67.55
2022-11-17T17:00:51.386Z,67.73
2022-11-17T17:03:19.050Z,67.33
2022-11-17T17:05:48.902Z,67.79
2022-11-17T17:08:16.741Z,67.71
2022-11-17T17:10:46.945Z,67.77
2022-11-17T17:13:14.901Z,67.39
2022-11-17T17:15:42.509Z,67.43
2022-11-17T17:18:10.155Z,67.23
2022-11-17T17:20:39.801Z,67.13
2022-11-17T17:23:07.838Z,67.49
2022-11-17T17:25:35.555Z,67.31
2022-11-17T17:28:05.080Z,67.34
2022-11-17T17:30:36.604Z,67.81
2022-11-17T17:33:10.859Z,67.64
2022-11-17T17:35:56.251Z,67.55
2022-11-17T17:38:26.729Z,67.76
2022-11-17T17:40:56.436Z,68.00
2022-11-17T17:43:42.529Z,67.81
2022-11-17T17:46:15.732Z,67.90
2022-11-17T17:48:45.534Z,67.66
2022-11-17T17:51:15.874Z,67.94
2022-11-17T17:53:43.757Z,68.06
2022-11-17T17:56:12.947Z,68.07
2022-11-17T17:58:42.585Z,68.03
2022-11-17T18:01:11.790Z,68.09
2022-11-17T18:03:40.254Z,67.76
2022-11-17T18:06:08.702Z,67.93
2022-11-17T18:08:36.870Z,68.07
2022-11-17T18:11:07.663Z,68.32
2022-11-17T18:13:38.091Z,68.26
2022-11-17T18:16:09.879Z,67.98
2022-11-17T18:18:38.186Z,68.18
2022-11-17T18:21:07.838Z,68.30
2022-11-17T18:23:36.738Z,68.25
2022-11-17T18:26:11.803Z,68.23
2022-11-17T18:28:40.355Z,68.25
2022-11-17T18:31:09.749Z,68.51
2022-11-17T18:33:39.039Z,68.29
2022-11-17T18:36:09.464Z,68.23
2022-11-17T18:38:38.570Z,68.17
2022-11-17T18:41:08.212Z,68.39
2022-11-17T18:43:36.428Z,68.28
2022-11-17T18:46:19.889Z,67.64
2022-11-17T18:48:51.820Z,67.62
2022-11-17T18:51:26.290Z,67.76
2022-11-17T18:53:55.481Z,67.96
2022-11-17T18:56:24.934Z,67.92
2022-11-17T18:58:53.138Z,67.59
2022-11-17T19:01:22.605Z,67.87
2022-11-17T19:03:53.417Z,67.81
2022-11-17T19:06:25.521Z,67.64
2022-11-17T19:08:54.109Z,67.93
2022-11-17T19:11:23.660Z,67.78
2022-11-17T19:13:51.632Z,67.64
2022-11-17T19:16:21.098Z,67.50
2022-11-17T19:18:53.783Z,66.78
2022-11-17T19:21:23.458Z,66.73
2022-11-17T19:23:52.348Z,66.63
2022-11-17T19:26:22.251Z,66.59
2022-11-17T19:28:50.049Z,66.85
2022-11-17T19:31:19.050Z,66.80
2022-11-17T19:33:47.696Z,66.85
2022-11-17T19:36:17.760Z,66.40
2022-11-17T19:38:50.583Z,66.89
2022-11-17T19:41:23.239Z,66.85
2022-11-17T19:43:53.706Z,66.69
2022-11-17T19:46:22.489Z,66.47
2022-11-17T19:48:50.229Z,66.33
2022-11-17T19:51:21.478Z,66.35
2022-11-17T19:53:50.172Z,66.64
2022-11-17T19:56:18.072Z,66.72
2022-11-17T19:58:46.512Z,67.13
2022-11-17T20:01:15.561Z,67.29
2022-11-17T20:03:43.954Z,67.18
2022-11-17T20:06:20.159Z,67.25
2022-11-17T20:09:06.701Z,67.10
2022-11-17T20:11:35.529Z,66.89
2022-11-17T20:14:08.778Z,66.60
2022-11-17T20:16:38.345Z,67.16
2022-11-17T20:19:07.182Z,67.01
2022-11-17T20:21:50.522Z,67.37
2022-11-17T20:24:22.007Z,67.31
2022-11-17T20:26:51.602Z,67.12
2022-11-17T20:29:30.267Z,67.62
2022-11-17T20:32:01.633Z,67.24
2022-11-17T20:34:34.288Z,67.03
2022-11-17T20:37:02.129Z,67.01
2022-11-17T20:39:35.420Z,67.13
2022-11-17T20:42:03.595Z,67.50
2022-11-17T20:44:35.900Z,67.33
2022-11-17T20:47:04.108Z,67.89
2022-11-17T20:49:41.400Z,67.47
2022-11-17T20:52:13.214Z,67.17
2022-11-17T20:54:42.573Z,67.21
2022-11-17T20:57:10.414Z,67.44
2022-11-17T20:59:38.635Z,67.27
2022-11-17T21:02:06.315Z,67.10
2022-11-17T21:04:33.895Z,67.55
2022-11-17T21:07:01.678Z,67.07
2022-11-17T21:09:29.351Z,67.29
2022-11-17T21:11:58.326Z,67.29
2022-11-17T21:14:27.225Z,67.51
2022-11-17T21:16:55.952Z,67.64
2022-11-17T21:19:24.059Z,67.19
2022-11-17T21:21:53.276Z,67.46
2022-11-17T21:24:21.980Z,67.35
2022-11-17T21:26:49.902Z,67.33
2022-11-17T21:29:20.679Z,67.31
2022-11-17T21:31:50.449Z,67.19
2022-11-17T21:34:22.246Z,67.53
2022-11-17T21:36:50.204Z,67.33
2022-11-17T21:39:22.619Z,67.57
2022-11-17T21:41:50.128Z,67.06
2022-11-17T21:44:21.135Z,67.41
2022-11-17T21:46:49.165Z,67.07
2022-11-17T21:49:17.218Z,67.24
2022-11-17T21:51:45.665Z,67.09
2022-11-17T21:54:14.816Z,67.31
2022-11-17T21:56:42.742Z,67.09
2022-11-17T21:59:12.293Z,67.07
2022-11-17T22:01:41.503Z,66.94
2022-11-17T22:04:09.692Z,67.38
2022-11-17T22:06:38.987Z,67.05
2022-11-17T22:09:06.623Z,66.98
2022-11-17T22:11:37.814Z,66.43
2022-11-17T22:14:08.021Z,66.26
2022-11-17T22:16:36.204Z,66.33
2022-11-17T22:19:05.967Z,66.47
2022-11-17T22:21:33.665Z,66.06
2022-11-17T22:24:01.487Z,66.18
2022-11-17T22:26:29.179Z,66.19
2022-11-17T22:28:57.188Z,65.71
2022-11-17T22:31:25.015Z,65.54
2022-11-17T22:33:53.033Z,65.45
2022-11-17T22:36:22.190Z,65.49
2022-11-17T22:38:50.716Z,65.41
2022-11-17T22:41:18.662Z,65.44
2022-11-17T22:43:49.732Z,65.72
2022-11-17T22:46:18.457Z,65.63
2022-11-17T22:48:46.256Z,66.11
2022-11-17T22:51:34.369Z,66.08
2022-11-17T22:54:03.480Z,66.48
2022-11-17T22:56:31.344Z,65.93
2022-11-17T22:58:59.973Z,65.96
2022-11-17T23:01:27.918Z,66.32
2022-11-17T23:03:55.722Z,66.35
2022-11-17T23:06:24.242Z,66.38
2022-11-17T23:08:51.898Z,66.04
2022-11-17T23:11:37.933Z,66.11
2022-11-17T23:14:06.819Z,66.31
2022-11-17T23:16:34.543Z,66.18
2022-11-17T23:19:02.167Z,66.58
2022-11-17T23:21:30.639Z,66.22
2022-11-17T23:23:58.329Z,66.13
2022-11-17T23:26:27.425Z,66.06
2022-11-17T23:28:55.262Z,65.77
2022-11-17T23:31:23.019Z,65.60
2022-11-17T23:33:50.707Z,65.32
2022-11-17T23:36:19.994Z,65.87
2022-11-17T23:38:48.309Z,66.05
2022-11-17T23:41:17.481Z,65.84
2022-11-17T23:43:46.709Z,65.70
2022-11-17T23:46:15.827Z,66.27
2022-11-17T23:48:44.581Z,66.00
2022-11-17T23:51:13.987Z,66.01
2022-11-17T23:53:41.891Z,66.13
2022-11-17T23:56:10.983Z,66.06
2022-11-17T23:58:39.673Z,65.69
